Freeport, Florida
Current Conditions -  °F | °C
As of 2:35 AM on Friday 28 Nov 2014 (Local Time) from K54J Reporting Station
Clear Clear  
Wind Chill: 32°   Ceiling: Unl
Heat Index: 36°   Visibility: 10mi
Dew Point: 31°   Wind: 6mph
Humidity: 83%   Direction: 360°N
Pressure: 30.39"   Gusts: NA
Location:  30.5°N, 86.14°W
Report Text: K54J 280835Z AUTO 36005KT 10SM CLR 02/00 A3039 RMK AO2 T00241003
Loading
Personal Weather Stations






























Interactive Weather Map New forecast layout! Learn more

10-Day Weather Forecast

Advertisements
Track Severe Weather on mobile